METAR Data
IDs: Format: Raw Decoded Include TAF

Data at: 1600 UTC 24 Aug 2019

PASX 241556Z AUTO 07003KT 10SM OVC100 06/04 A2969 RMK AO2 SLP064 T00560039
PASX 241456Z AUTO 05003KT 10SM FEW110 05/03 A2967 RMK AO2 SLP058 T00500033 51013
PASX 241356Z AUTO 00000KT 10SM BKN085 05/03 A2966 RMK AO2 SLP054 T00500033
PASX 241256Z AUTO 08003KT 10SM FEW110 08/05 A2965 RMK AO2 SLP048 T00780050
PASX 241156Z AUTO 08003KT 10SM FEW035 SCT070 BKN110 07/06 A2963 RMK AO2 RAB05E46 SLP044 P0000 60000 T00720056 10117 20067 51010
PASX 241056Z AUTO 05003KT 10SM SCT110 08/05 A2963 RMK AO2 SLP044 T00780050
PASX 240956Z AUTO 00000KT 10SM BKN120 08/05 A2963 RMK AO2 SLP042 T00780050
PASX 240856Z AUTO 07003KT 10SM CLR 08/05 A2961 RMK AO2 SLP035 T00780050 402060017 53012
PASX 240756Z AUTO 00000KT 9SM CLR 08/06 A2959 RMK AO2 SLP029 T00830056
PASX 240656Z AUTO 00000KT 9SM CLR 09/07 A2958 RMK AO2 SLP026 T00940067
PASX 240556Z AUTO 10003KT 8SM CLR 11/07 A2957 RMK AO2 SLP023 T01110072 10206 20111 53008
PASX 240456Z AUTO 26005KT 8SM CLR 16/08 A2956 RMK AO2 SLP019 T01560083
PASX 240356Z AUTO 26009KT 9SM CLR 18/08 A2955 RMK AO2 SLP015 T01780078
PASX 240256Z AUTO 27009KT 10SM CLR 19/06 A2955 RMK AO2 SLP015 T01890061 55002
PASX 240156Z AUTO 27008KT 10SM CLR 20/06 A2954 RMK AO2 SLP014 T02000056
PASX 240056Z AUTO 29008KT 9SM CLR 21/06 A2955 RMK AO2 SLP015 T02060061
PASX 232356Z AUTO 24007KT 9SM CLR 20/07 A2955 RMK AO2 SLP016 T02000067 10206 20106 58006
PASX 232256Z AUTO 26011KT 9SM CLR 19/07 A2956 RMK AO2 SLP019 T01890072
PASX 232156Z AUTO 27005KT 8SM CLR 18/06 A2957 RMK AO2 SLP022 T01830061
PASX 232056Z AUTO 32004KT 8SM CLR 17/07 A2957 RMK AO2 SLP022 T01670067 57005
PASX 231956Z AUTO 28005KT 7SM CLR 16/07 A2958 RMK AO2 SLP025 T01560067
PASX 231856Z AUTO 00000KT 6SM HZ FEW110 14/06 A2958 RMK AO2 SLP025 T01440061
PASX 231756Z AUTO 09004KT 5SM HZ SCT110 11/04 A2959 RMK AO2 SLP028 T01060044 10106 20017 55002
PASX 231656Z AUTO 07005KT 4SM HZ BKN100 07/04 A2958 RMK AO2 SLP027 T00720044
PASX 231556Z AUTO 07004KT 3SM BR CLR 04/03 A2959 RMK AO2 SLP029 T00440033
PASX 231456Z AUTO 08004KT 3SM BR CLR 03/02 A2959 RMK AO2 SLP031 T00330022 53004
PASX 231356Z AUTO 08003KT 5SM BR CLR 03/02 A2959 RMK AO2 SLP029 T00330022
PASX 231256Z AUTO 07003KT 6SM BR CLR 04/02 A2958 RMK AO2 SLP027 T00390022
PASX 231156Z AUTO 07005KT 5SM HZ CLR 06/03 A2958 RMK AO2 SLP026 T00560028 10122 20044 58008
PASX 231056Z AUTO VRB03KT 5SM HZ CLR 07/04 A2959 RMK AO2 SLP028 T00720039
PASX 230956Z AUTO 00000KT 6SM HZ CLR 08/04 A2960 RMK AO2 SLP032 T00830044
PASX 230856Z AUTO 18005KT 5SM HZ CLR 10/06 A2960 RMK AO2 SLP033 T01000056 401940011 51005
PASX 230756Z AUTO 21004KT 7SM CLR 11/06 A2960 RMK AO2 SLP033 T01110061
PASX 230656Z AUTO 14003KT 8SM CLR 08/03 A2959 RMK AO2 SLP031 T00830033
PASX 230556Z AUTO 00000KT 7SM CLR 11/04 A2959 RMK AO2 SLP029 T01110039 10194 20111 53000
PASX 230456Z AUTO 00000KT 6SM HZ CLR 16/03 A2958 RMK AO2 SLP027 T01610033